Coremas, Brazil
Current Conditions -  °F | °C
As of 7:00 AM on Thursday 18 Dec 2014 (Local Time) from SBJU Reporting Station
Light Rain Light Rain  
Wind Chill: 73°   Ceiling: 1800
Heat Index: 73°   Visibility: 6mi
Dew Point: 73°   Wind: 10mph
Humidity: 100%   Direction: 130°SE
Pressure: 30.03"   Gusts: NA
Location:  7.01°S, 37.95°W
Report Text: SBJU 181000Z 13009KT 9000 -RA OVC018 23/23 Q1017
Loading
Personal Weather Stations






























Interactive Weather Map New forecast layout! Learn more

10-Day Weather Forecast

Advertisements
Track Severe Weather on mobile